Time;durP1;ratioP1;P1;durP2;ratioP2;P2;SDS_P1;SDS_P2;PMS_P1;PMS_P2;Temp;Humidity;BMP_temperature;BMP_pressure;BME280_temperature;BME280_humidity;BME280_pressure;Samples;Min_cycle;Max_cycle;Signal;HPM_P1;HPM_P2
2024/01/19 00:00:45;;;;;;;24.67;8.20;;;;;;;;;;4988818;28;20050;-75
2024/01/19 00:03:12;;;;;;;23.42;8.35;;;;;;;;;;4973217;28;20218;-75
2024/01/19 00:06:31;;;;;;;32.10;8.15;;;;;;;;;;4973748;28;20037;-75
2024/01/19 00:09:31;;;;;;;28.25;8.35;;;;;;;;;;4987974;28;20112;-76
2024/01/19 00:16:21;;;;;;;35.67;8.27;;;;;;;;;;4966909;28;20144;-78
2024/01/19 00:19:33;;;;;;;22.08;7.68;;;;;;;;;;4962765;28;20075;-78
2024/01/19 00:22:25;;;;;;;20.02;6.35;;;;;;;;;;4935944;29;20120;-77
2024/01/19 00:25:12;;;;;;;18.40;7.85;;;;;;;;;;4953328;28;20194;-78
2024/01/19 00:27:53;;;;;;;26.50;6.70;;;;;;;;;;4967055;28;20050;-78
2024/01/19 00:30:36;;;;;;;20.60;6.57;;;;;;;;;;4967672;28;20086;-78
2024/01/19 00:33:37;;;;;;;20.38;7.00;;;;;;;;;;4963960;28;20122;-78
2024/01/19 00:36:17;;;;;;;25.85;6.53;;;;;;;;;;4906992;28;20429;-78
2024/01/19 00:38:52;;;;;;;21.17;5.97;;;;;;;;;;4959794;28;20054;-78
2024/01/19 00:41:27;;;;;;;23.00;6.20;;;;;;;;;;4981686;28;20345;-77
2024/01/19 00:43:55;;;;;;;18.23;6.82;;;;;;;;;;4987728;28;20748;-78
2024/01/19 00:46:36;;;;;;;21.85;6.90;;;;;;;;;;4987580;28;20392;-78
2024/01/19 00:49:20;;;;;;;21.30;6.80;;;;;;;;;;4987037;28;20562;-77
2024/01/19 00:51:54;;;;;;;17.20;7.55;;;;;;;;;;4997359;28;20056;-78
2024/01/19 00:54:41;;;;;;;13.05;5.88;;;;;;;;;;4976705;28;20522;-78
2024/01/19 00:57:08;;;;;;;23.58;6.75;;;;;;;;;;4996549;28;20042;-78
2024/01/19 00:59:35;;;;;;;15.65;4.80;;;;;;;;;;4975283;28;20026;-77
2024/01/19 01:02:02;;;;;;;19.65;5.55;;;;;;;;;;4992838;28;20049;-77
2024/01/19 01:04:35;;;;;;;20.02;4.35;;;;;;;;;;5007743;28;20228;-78
2024/01/19 01:07:13;;;;;;;14.13;3.67;;;;;;;;;;5007984;28;20566;-78
2024/01/19 01:10:08;;;;;;;16.00;3.45;;;;;;;;;;4991118;28;20043;-78
2024/01/19 01:12:42;;;;;;;11.18;3.50;;;;;;;;;;4992133;28;20395;-78
2024/01/19 01:15:18;;;;;;;7.03;2.97;;;;;;;;;;4992676;28;20042;-78
2024/01/19 01:17:48;;;;;;;15.27;3.38;;;;;;;;;;4975117;28;20041;-78
2024/01/19 01:20:20;;;;;;;23.40;2.97;;;;;;;;;;4994356;28;20054;-77
2024/01/19 01:22:48;;;;;;;16.23;2.83;;;;;;;;;;4996018;28;20066;-77
2024/01/19 01:25:18;;;;;;;9.32;2.50;;;;;;;;;;5010986;28;20124;-77
2024/01/19 01:27:48;;;;;;;12.57;3.95;;;;;;;;;;4978828;28;20037;-77
2024/01/19 01:30:14;;;;;;;18.63;5.20;;;;;;;;;;4996095;28;20044;-77
2024/01/19 01:32:46;;;;;;;25.70;7.05;;;;;;;;;;4995790;28;20042;-77
2024/01/19 01:35:12;;;;;;;17.95;5.15;;;;;;;;;;4978665;28;20031;-77
2024/01/19 01:37:47;;;;;;;23.27;5.50;;;;;;;;;;4995769;28;20038;-76
2024/01/19 01:48:16;;;;;;;18.45;4.90;;;;;;;;;;4915119;29;20044;-76
2024/01/19 01:50:49;;;;;;;16.42;4.45;;;;;;;;;;4938139;28;20050;-77
2024/01/19 01:53:22;;;;;;;11.80;4.03;;;;;;;;;;4974729;28;20043;-76
2024/01/19 01:55:56;;;;;;;16.42;4.20;;;;;;;;;;4976209;28;20043;-76
2024/01/19 01:58:29;;;;;;;13.73;4.72;;;;;;;;;;4976157;28;20062;-76
2024/01/19 02:01:13;;;;;;;;;;;;;;;;;;;;;
2024/01/19 02:04:11;;;;;;;18.35;4.45;;;;;;;;;;4975662;28;20537;-77
2024/01/19 02:06:40;;;;;;;10.82;3.72;;;;;;;;;;4974895;28;20043;-76
2024/01/19 02:09:20;;;;;;;12.48;3.88;;;;;;;;;;4974791;28;20059;-76
2024/01/19 02:11:55;;;;;;;15.75;4.20;;;;;;;;;;4976193;28;20034;-76
2024/01/19 02:14:22;;;;;;;15.38;4.72;;;;;;;;;;4974391;28;20038;-76
2024/01/19 02:16:55;;;;;;;13.93;5.28;;;;;;;;;;4977397;28;20030;-76
2024/01/19 02:19:39;;;;;;;15.38;4.38;;;;;;;;;;4979359;28;20035;-77
2024/01/19 02:22:27;;;;;;;12.02;4.20;;;;;;;;;;4995925;28;20034;-77
2024/01/19 02:28:21;;;;;;;16.02;3.90;;;;;;;;;;4995126;28;20603;-77
2024/01/19 02:30:48;;;;;;;11.20;4.10;;;;;;;;;;4994377;28;20133;-77
2024/01/19 02:33:18;;;;;;;9.98;4.13;;;;;;;;;;4977518;28;20031;-77
2024/01/19 02:35:46;;;;;;;21.48;5.05;;;;;;;;;;4977559;28;20034;-77
2024/01/19 02:38:18;;;;;;;13.30;4.10;;;;;;;;;;4994282;28;20404;-77
2024/01/19 02:40:53;;;;;;;13.98;3.38;;;;;;;;;;4994589;28;20035;-76
2024/01/19 02:44:09;;;;;;;18.40;3.53;;;;;;;;;;4978394;28;20117;-76
2024/01/19 02:46:38;;;;;;;11.77;2.30;;;;;;;;;;4992528;28;20088;-76
2024/01/19 02:49:06;;;;;;;7.90;2.70;;;;;;;;;;4976984;28;20113;-76
2024/01/19 02:51:36;;;;;;;7.32;2.80;;;;;;;;;;4994698;28;20056;-76
2024/01/19 02:54:06;;;;;;;14.98;3.10;;;;;;;;;;4961764;28;20038;-76
2024/01/19 02:56:39;;;;;;;8.45;3.08;;;;;;;;;;4993873;28;20112;-76
2024/01/19 02:59:06;;;;;;;12.32;3.05;;;;;;;;;;4960934;28;20061;-75
2024/01/19 03:01:33;;;;;;;8.85;3.03;;;;;;;;;;4977004;28;20063;-75
2024/01/19 03:04:00;;;;;;;10.45;3.20;;;;;;;;;;4994248;28;20499;-74
2024/01/19 03:06:26;;;;;;;10.85;3.42;;;;;;;;;;4976581;28;20447;-76
2024/01/19 03:08:55;;;;;;;7.57;2.53;;;;;;;;;;4993949;28;20077;-76
2024/01/19 03:11:22;;;;;;;9.40;2.45;;;;;;;;;;4993875;28;20440;-75
2024/01/19 03:13:51;;;;;;;10.13;3.70;;;;;;;;;;4976334;28;20493;-77
2024/01/19 03:16:18;;;;;;;10.80;2.85;;;;;;;;;;4976222;28;20388;-76
2024/01/19 03:18:44;;;;;;;7.85;2.95;;;;;;;;;;4960298;28;20439;-76
2024/01/19 03:21:12;;;;;;;10.10;2.92;;;;;;;;;;4993741;28;20387;-76
2024/01/19 03:23:39;;;;;;;10.23;3.25;;;;;;;;;;4960268;28;20677;-76
2024/01/19 03:26:08;;;;;;;12.15;2.40;;;;;;;;;;4993970;28;20539;-75
2024/01/19 03:28:36;;;;;;;11.85;2.63;;;;;;;;;;4993427;28;20399;-76
2024/01/19 03:31:04;;;;;;;14.52;3.72;;;;;;;;;;4976676;28;20514;-76
2024/01/19 03:33:31;;;;;;;5.07;2.40;;;;;;;;;;4960104;28;20545;-76
2024/01/19 03:36:01;;;;;;;13.55;2.78;;;;;;;;;;4992659;28;20559;-76
2024/01/19 03:38:33;;;;;;;8.20;2.63;;;;;;;;;;4993814;28;20038;-76
2024/01/19 03:41:05;;;;;;;5.97;2.17;;;;;;;;;;4977052;28;20049;-76
2024/01/19 03:43:37;;;;;;;13.48;3.90;;;;;;;;;;4975552;28;20508;-76
2024/01/19 03:46:04;;;;;;;10.10;2.92;;;;;;;;;;4993742;28;20049;-76
2024/01/19 03:48:31;;;;;;;9.20;2.90;;;;;;;;;;4976277;28;20104;-76
2024/01/19 03:50:58;;;;;;;11.00;2.70;;;;;;;;;;4976578;28;20042;-76
2024/01/19 03:53:25;;;;;;;14.25;3.05;;;;;;;;;;4992644;28;20038;-76
2024/01/19 03:55:53;;;;;;;8.88;2.15;;;;;;;;;;4992850;28;20030;-76
2024/01/19 03:58:23;;;;;;;6.05;2.38;;;;;;;;;;4992943;28;20081;-76
2024/01/19 04:00:50;;;;;;;8.55;2.83;;;;;;;;;;4959396;28;20034;-76
2024/01/19 04:03:19;;;;;;;9.00;2.10;;;;;;;;;;4975594;28;20053;-76
2024/01/19 04:06:05;;;;;;;9.50;3.13;;;;;;;;;;4992806;28;20104;-75
2024/01/19 04:08:32;;;;;;;12.82;3.15;;;;;;;;;;4975959;28;20037;-75
2024/01/19 04:11:06;;;;;;;9.73;2.95;;;;;;;;;;4992671;28;20034;-75
2024/01/19 04:13:38;;;;;;;14.10;3.42;;;;;;;;;;4974634;28;20089;-76
2024/01/19 04:16:07;;;;;;;11.13;3.28;;;;;;;;;;4991877;28;20114;-75
2024/01/19 04:18:48;;;;;;;27.10;3.60;;;;;;;;;;5007709;28;20081;-76
2024/01/19 04:26:37;;;;;;;32.40;5.65;;;;;;;;;;4894297;29;20039;-77
2024/01/19 04:29:09;;;;;;;22.80;4.63;;;;;;;;;;4892492;29;20181;-77
2024/01/19 04:31:36;;;;;;;22.75;5.57;;;;;;;;;;4894612;29;20100;-78
2024/01/19 04:34:07;;;;;;;19.50;3.75;;;;;;;;;;4975334;28;20073;-76
2024/01/19 04:36:33;;;;;;;23.83;4.15;;;;;;;;;;4959135;28;20034;-76
2024/01/19 04:39:11;;;;;;;19.38;4.10;;;;;;;;;;4991956;28;20034;-75
2024/01/19 04:41:44;;;;;;;24.25;6.18;;;;;;;;;;4992847;28;20073;-76
2024/01/19 04:44:11;;;;;;;23.85;4.80;;;;;;;;;;4992296;28;20169;-76
2024/01/19 04:46:37;;;;;;;43.97;7.15;;;;;;;;;;4992177;28;20109;-75
2024/01/19 04:49:10;;;;;;;24.58;7.72;;;;;;;;;;4960009;28;20041;-75
2024/01/19 04:51:42;;;;;;;31.25;6.40;;;;;;;;;;4992499;28;20038;-75
2024/01/19 04:54:09;;;;;;;23.45;6.47;;;;;;;;;;4992736;28;20061;-75
2024/01/19 04:56:37;;;;;;;17.75;5.70;;;;;;;;;;5011038;28;20105;-76
2024/01/19 04:59:09;;;;;;;23.65;6.45;;;;;;;;;;4996769;28;20054;-75
2024/01/19 05:01:37;;;;;;;26.10;6.53;;;;;;;;;;4996037;28;20038;-75
2024/01/19 05:04:04;;;;;;;31.40;8.02;;;;;;;;;;4995933;28;20038;-75
2024/01/19 05:06:31;;;;;;;32.65;6.65;;;;;;;;;;4979043;28;20041;-75
2024/01/19 05:08:57;;;;;;;28.52;6.38;;;;;;;;;;4996021;28;20042;-75
2024/01/19 05:11:24;;;;;;;14.45;4.50;;;;;;;;;;4978254;28;20022;-75
2024/01/19 05:13:52;;;;;;;28.40;6.55;;;;;;;;;;4995209;28;20296;-75
2024/01/19 05:16:18;;;;;;;20.98;6.45;;;;;;;;;;4978156;28;20041;-75
2024/01/19 05:18:44;;;;;;;13.43;4.38;;;;;;;;;;4995886;28;20027;-76
2024/01/19 05:21:16;;;;;;;12.77;4.10;;;;;;;;;;4978723;28;20076;-76
2024/01/19 05:23:42;;;;;;;13.40;3.88;;;;;;;;;;4978525;28;20076;-76
2024/01/19 05:26:08;;;;;;;24.65;4.18;;;;;;;;;;4978113;28;20026;-73
2024/01/19 05:28:37;;;;;;;12.68;4.32;;;;;;;;;;4978123;28;20030;-77
2024/01/19 05:31:09;;;;;;;24.33;3.47;;;;;;;;;;4995903;28;20088;-77
2024/01/19 05:33:42;;;;;;;33.47;6.47;;;;;;;;;;4978726;28;20189;-77
2024/01/19 05:36:08;;;;;;;31.95;5.13;;;;;;;;;;4995292;28;20507;-75
2024/01/19 05:38:37;;;;;;;26.08;4.70;;;;;;;;;;4995127;28;20038;-76
2024/01/19 05:41:03;;;;;;;27.90;6.18;;;;;;;;;;4995073;28;20027;-75
2024/01/19 05:43:30;;;;;;;14.25;5.47;;;;;;;;;;4995359;28;20559;-75
2024/01/19 05:45:57;;;;;;;18.70;4.80;;;;;;;;;;4995106;28;20022;-75
2024/01/19 05:48:25;;;;;;;29.15;7.95;;;;;;;;;;4977723;28;20415;-76
2024/01/19 05:50:51;;;;;;;30.33;7.63;;;;;;;;;;4995241;28;20450;-75
2024/01/19 05:53:21;;;;;;;27.80;5.70;;;;;;;;;;4995101;28;20431;-75
2024/01/19 05:55:47;;;;;;;18.23;6.85;;;;;;;;;;4995116;28;20431;-76
2024/01/19 05:58:13;;;;;;;16.40;6.38;;;;;;;;;;4995046;28;20417;-75
2024/01/19 06:01:27;;;;;;;23.65;9.75;;;;;;;;;;4978034;28;20029;-75
2024/01/19 06:03:41;;;;;;;29.70;13.00;;;;;;;;;;4962440;28;20499;-76
2024/01/19 06:06:07;;;;;;;39.67;10.07;;;;;;;;;;4990064;28;20513;-75
2024/01/19 06:08:38;;;;;;;31.50;8.85;;;;;;;;;;4995142;28;20033;-76
2024/01/19 06:11:09;;;;;;;30.15;10.15;;;;;;;;;;4995140;28;20042;-75
2024/01/19 06:13:40;;;;;;;29.38;6.82;;;;;;;;;;4994934;28;20115;-75
2024/01/19 06:16:10;;;;;;;21.23;6.70;;;;;;;;;;4994796;28;20504;-75
2024/01/19 06:18:49;;;;;;;17.25;4.90;;;;;;;;;;4994377;28;20525;-75
2024/01/19 06:21:33;;;;;;;17.52;5.20;;;;;;;;;;4977773;28;20049;-77
2024/01/19 06:24:24;;;;;;;20.27;8.32;;;;;;;;;;4993822;28;20167;-77
2024/01/19 06:26:54;;;;;;;19.85;6.07;;;;;;;;;;4961064;28;20113;-76
2024/01/19 06:29:31;;;;;;;16.83;7.00;;;;;;;;;;4977722;28;20129;-76
2024/01/19 06:32:13;;;;;;;15.93;5.18;;;;;;;;;;4980019;28;20057;-76
2024/01/19 06:34:41;;;;;;;26.40;7.70;;;;;;;;;;4994669;28;20038;-76
2024/01/19 06:37:08;;;;;;;28.23;8.30;;;;;;;;;;4961264;28;20034;-77
2024/01/19 06:39:35;;;;;;;70.00;15.57;;;;;;;;;;4976760;28;20049;-76
2024/01/19 06:42:01;;;;;;;37.30;16.02;;;;;;;;;;5009910;28;20093;-77
2024/01/19 06:44:28;;;;;;;35.28;12.73;;;;;;;;;;4961693;28;20042;-76
2024/01/19 06:46:54;;;;;;;28.33;8.52;;;;;;;;;;4977096;28;20041;-76
2024/01/19 06:49:20;;;;;;;28.58;8.05;;;;;;;;;;4994543;28;20026;-76
2024/01/19 06:51:47;;;;;;;31.92;7.65;;;;;;;;;;4944796;28;20045;-76
2024/01/19 06:54:13;;;;;;;21.65;8.43;;;;;;;;;;4994054;28;20034;-76
2024/01/19 06:56:40;;;;;;;27.10;7.80;;;;;;;;;;4976107;28;20557;-76
2024/01/19 06:59:10;;;;;;;26.60;6.85;;;;;;;;;;4976527;28;20402;-76
2024/01/19 07:02:16;;;;;;;24.13;7.07;;;;;;;;;;4994449;28;20037;-76
2024/01/19 07:04:52;;;;;;;25.38;9.15;;;;;;;;;;4976267;28;20065;-76
2024/01/19 07:07:42;;;;;;;51.80;9.00;;;;;;;;;;4990957;28;20085;-75
2024/01/19 07:10:11;;;;;;;29.15;6.70;;;;;;;;;;4976450;28;20034;-75
2024/01/19 07:12:38;;;;;;;17.77;4.70;;;;;;;;;;4993616;28;20026;-76
2024/01/19 07:15:06;;;;;;;21.40;5.03;;;;;;;;;;4976079;28;20389;-75
2024/01/19 07:17:35;;;;;;;19.98;5.80;;;;;;;;;;4976287;28;20042;-75
2024/01/19 07:20:05;;;;;;;21.48;7.47;;;;;;;;;;4977243;28;20026;-75
2024/01/19 07:22:38;;;;;;;28.75;7.60;;;;;;;;;;4993525;28;20451;-75
2024/01/19 07:25:11;;;;;;;25.35;9.15;;;;;;;;;;4976002;28;20022;-75
2024/01/19 07:27:43;;;;;;;36.38;11.18;;;;;;;;;;5007653;28;20046;-75
2024/01/19 07:30:15;;;;;;;18.35;7.10;;;;;;;;;;4994132;28;20034;-75
2024/01/19 07:33:18;;;;;;;28.30;7.47;;;;;;;;;;4993350;28;20499;-75
2024/01/19 07:35:45;;;;;;;33.30;7.78;;;;;;;;;;4987673;28;20050;-75
2024/01/19 07:38:25;;;;;;;19.33;7.18;;;;;;;;;;4993367;28;20042;-75
2024/01/19 07:41:27;;;;;;;24.98;8.00;;;;;;;;;;4977683;28;20038;-75
2024/01/19 07:43:55;;;;;;;25.73;8.18;;;;;;;;;;4990982;28;20049;-75
2024/01/19 07:46:22;;;;;;;25.08;7.63;;;;;;;;;;4975841;28;20030;-75
2024/01/19 07:48:49;;;;;;;22.10;7.57;;;;;;;;;;4960060;28;20121;-75
2024/01/19 07:51:15;;;;;;;24.65;6.63;;;;;;;;;;4975971;28;20049;-76
2024/01/19 07:53:43;;;;;;;30.58;9.23;;;;;;;;;;4991381;28;20052;-75
2024/01/19 07:56:10;;;;;;;31.70;8.88;;;;;;;;;;4989672;28;20104;-75
2024/01/19 07:58:43;;;;;;;34.10;8.48;;;;;;;;;;4974934;28;20068;-75
2024/01/19 08:01:12;;;;;;;25.42;7.60;;;;;;;;;;4991528;28;20038;-75
2024/01/19 08:03:42;;;;;;;33.85;8.35;;;;;;;;;;4967075;28;20022;-75
2024/01/19 08:07:00;;;;;;;27.85;6.22;;;;;;;;;;4974667;28;20042;-79
2024/01/19 08:09:03;;;;;;;;;;;;;;;;;;4968922;28;20119;-79
2024/01/19 08:12:25;;;;;;;23.90;5.80;;;;;;;;;;4977174;28;20406;-80
2024/01/19 08:19:16;;;;;;;19.77;4.65;;;;;;;;;;4930287;29;20118;-79
2024/01/19 08:21:46;;;;;;;16.50;5.45;;;;;;;;;;4911787;29;20051;-78
2024/01/19 08:24:48;;;;;;;26.42;8.48;;;;;;;;;;4985340;28;20066;-78
2024/01/19 08:27:46;;;;;;;19.10;5.53;;;;;;;;;;4991161;28;20085;-79
2024/01/19 08:34:47;;;;;;;24.58;8.27;;;;;;;;;;4929943;29;20040;-78
2024/01/19 08:37:37;;;;;;;17.08;5.18;;;;;;;;;;4931143;29;20488;-80
2024/01/19 08:40:09;;;;;;;24.63;6.28;;;;;;;;;;4983376;28;20463;-78
2024/01/19 08:42:57;;;;;;;18.48;5.70;;;;;;;;;;4974157;28;20395;-80
2024/01/19 08:45:28;;;;;;;14.18;4.00;;;;;;;;;;4991346;28;20036;-80
2024/01/19 08:48:21;;;;;;;19.67;4.88;;;;;;;;;;4970537;28;20091;-80
2024/01/19 08:50:52;;;;;;;27.20;5.57;;;;;;;;;;4990276;28;20437;-79
2024/01/19 08:53:29;;;;;;;19.38;4.65;;;;;;;;;;4991614;28;20484;-79
2024/01/19 08:56:14;;;;;;;14.18;4.90;;;;;;;;;;4991530;28;20558;-78
2024/01/19 08:58:49;;;;;;;14.75;3.90;;;;;;;;;;4974593;28;20563;-78
2024/01/19 09:02:13;;;;;;;9.40;2.55;;;;;;;;;;4991180;28;20042;-80
2024/01/19 09:05:21;;;;;;;15.20;3.00;;;;;;;;;;4936991;29;20445;-78
2024/01/19 09:07:50;;;;;;;16.92;4.40;;;;;;;;;;4921688;28;20055;-78
2024/01/19 09:10:20;;;;;;;7.25;2.85;;;;;;;;;;4990268;28;20585;-78
2024/01/19 09:13:16;;;;;;;10.10;2.78;;;;;;;;;;4985555;28;20373;-78
2024/01/19 09:15:43;;;;;;;11.43;3.30;;;;;;;;;;4983566;28;20061;-78
2024/01/19 09:18:18;;;;;;;10.57;2.47;;;;;;;;;;4974814;28;20058;-79
2024/01/19 09:20:56;;;;;;;14.02;3.42;;;;;;;;;;4975129;28;20042;-79
2024/01/19 09:23:25;;;;;;;17.90;5.38;;;;;;;;;;4974811;28;20046;-80
2024/01/19 09:25:55;;;;;;;15.68;3.50;;;;;;;;;;4958055;28;20212;-78
2024/01/19 09:28:26;;;;;;;8.93;2.63;;;;;;;;;;4991550;28;20085;-79
2024/01/19 09:30:56;;;;;;;11.20;3.97;;;;;;;;;;4991541;28;20065;-79
2024/01/19 09:33:22;;;;;;;11.27;5.85;;;;;;;;;;4974362;28;20040;-80
2024/01/19 09:35:52;;;;;;;12.50;3.75;;;;;;;;;;4990542;28;20038;-78
2024/01/19 09:38:50;;;;;;;;;;;;;;;;;;;;;
2024/01/19 09:43:11;;;;;;;;;;;;;;;;;;;;;
2024/01/19 09:46:33;;;;;;;14.93;2.60;;;;;;;;;;4949667;28;20045;-79
2024/01/19 09:51:03;;;;;;;21.95;2.75;;;;;;;;;;4992126;28;20126;-81
2024/01/19 09:53:32;;;;;;;9.25;2.58;;;;;;;;;;4990201;28;20116;-80
2024/01/19 09:56:12;;;;;;;11.65;2.75;;;;;;;;;;4995323;28;20135;-80
2024/01/19 09:58:39;;;;;;;10.45;2.47;;;;;;;;;;4994124;28;20050;-81
2024/01/19 10:01:16;;;;;;;11.68;2.08;;;;;;;;;;4993579;28;20046;-80
2024/01/19 10:03:50;;;;;;;10.77;2.20;;;;;;;;;;4995323;28;20037;-80
2024/01/19 10:06:24;;;;;;;10.95;2.35;;;;;;;;;;4977879;28;20066;-81
2024/01/19 10:08:58;;;;;;;22.58;2.88;;;;;;;;;;4993639;28;20073;-80
2024/01/19 10:11:26;;;;;;;;;;;;;;;;;;4994073;28;20042;-80
2024/01/19 10:13:52;;;;;;;13.88;2.47;;;;;;;;;;4994315;28;19971;-80
2024/01/19 10:16:21;;;;;;;9.73;2.80;;;;;;;;;;4994688;28;20041;-80
2024/01/19 10:18:52;;;;;;;8.10;2.05;;;;;;;;;;4993766;28;20074;-81
2024/01/19 10:21:30;;;;;;;14.32;2.97;;;;;;;;;;4994788;28;20092;-81
2024/01/19 10:24:32;;;;;;;7.35;2.10;;;;;;;;;;4994706;28;20027;-83
2024/01/19 10:27:09;;;;;;;12.57;2.20;;;;;;;;;;4994050;28;20034;-82
2024/01/19 10:29:37;;;;;;;10.45;2.28;;;;;;;;;;4994565;28;20042;-80
2024/01/19 10:32:06;;;;;;;16.27;2.72;;;;;;;;;;4992755;28;20038;-82
2024/01/19 10:34:40;;;;;;;14.38;2.30;;;;;;;;;;4992875;28;20034;-82
2024/01/19 10:37:07;;;;;;;14.35;2.45;;;;;;;;;;4992797;28;20057;-82
2024/01/19 10:39:34;;;;;;;9.75;2.38;;;;;;;;;;4993517;28;20046;-81
2024/01/19 10:42:07;;;;;;;13.68;2.28;;;;;;;;;;4994191;28;20029;-81
2024/01/19 10:44:36;;;;;;;10.43;2.33;;;;;;;;;;4993967;28;20026;-82
2024/01/19 10:47:02;;;;;;;14.88;3.05;;;;;;;;;;4976556;28;20057;-81
2024/01/19 10:49:47;;;;;;;9.70;2.10;;;;;;;;;;4993539;28;20116;-81
2024/01/19 10:52:13;;;;;;;9.35;2.55;;;;;;;;;;4975295;28;20042;-80
2024/01/19 10:54:40;;;;;;;9.05;2.08;;;;;;;;;;5008580;28;20042;-80
2024/01/19 10:57:09;;;;;;;12.23;2.35;;;;;;;;;;4975993;28;20109;-80
2024/01/19 10:59:39;;;;;;;16.30;7.57;;;;;;;;;;4975843;28;20476;-81
2024/01/19 11:02:08;;;;;;;7.35;1.70;;;;;;;;;;4993572;28;20030;-80
2024/01/19 11:04:37;;;;;;;9.70;2.38;;;;;;;;;;4976344;28;20105;-81
2024/01/19 11:07:06;;;;;;;14.05;3.20;;;;;;;;;;4993837;28;20121;-80
2024/01/19 11:09:39;;;;;;;6.73;2.60;;;;;;;;;;4993826;28;20487;-80
2024/01/19 11:12:11;;;;;;;8.85;2.67;;;;;;;;;;4976128;28;20034;-79
2024/01/19 11:14:48;;;;;;;13.10;2.65;;;;;;;;;;4992819;28;20393;-81
2024/01/19 11:17:49;;;;;;;19.75;10.13;;;;;;;;;;4979305;28;20510;-80
2024/01/19 11:20:16;;;;;;;12.73;2.80;;;;;;;;;;4992827;28;20518;-80
2024/01/19 11:22:46;;;;;;;12.80;2.63;;;;;;;;;;4993467;28;20381;-80
2024/01/19 11:25:17;;;;;;;15.45;2.58;;;;;;;;;;4992981;28;20029;-79
2024/01/19 11:27:55;;;;;;;17.42;2.72;;;;;;;;;;4975459;28;20543;-78
2024/01/19 11:31:10;;;;;;;18.63;3.20;;;;;;;;;;4992833;28;20515;-79
2024/01/19 11:33:40;;;;;;;14.95;3.40;;;;;;;;;;4982316;28;20054;-79
2024/01/19 11:36:06;;;;;;;33.17;3.92;;;;;;;;;;4991574;28;20479;-79
2024/01/19 11:38:45;;;;;;;8.23;1.88;;;;;;;;;;4974162;28;20487;-79
2024/01/19 11:41:33;;;;;;;8.18;2.10;;;;;;;;;;4992351;28;20081;-80
2024/01/19 11:44:07;;;;;;;8.70;2.72;;;;;;;;;;4992548;28;20034;-81
2024/01/19 11:46:51;;;;;;;9.95;2.75;;;;;;;;;;4975482;28;20117;-79
2024/01/19 11:49:40;;;;;;;9.63;3.33;;;;;;;;;;4993210;28;20121;-80
2024/01/19 11:52:17;;;;;;;15.05;3.75;;;;;;;;;;4975370;28;20038;-80
2024/01/19 11:54:44;;;;;;;10.18;2.53;;;;;;;;;;4975423;28;20122;-79
2024/01/19 11:57:26;;;;;;;12.20;2.22;;;;;;;;;;4992770;28;20097;-79
2024/01/19 11:59:56;;;;;;;8.67;2.13;;;;;;;;;;4991970;28;20504;-81
2024/01/19 12:02:27;;;;;;;;;;;;;;;;;;4974601;28;20129;-80
2024/01/19 12:04:57;;;;;;;8.27;1.90;;;;;;;;;;4991861;28;19996;-80
2024/01/19 12:07:30;;;;;;;11.27;2.42;;;;;;;;;;4992919;28;20069;-80
2024/01/19 12:11:04;;;;;;;11.13;2.58;;;;;;;;;;4992454;28;20030;-80
2024/01/19 12:13:08;;;;;;;13.20;2.65;;;;;;;;;;4982734;28;20042;-80
2024/01/19 12:15:37;;;;;;;15.98;3.65;;;;;;;;;;4975274;28;20034;-80
2024/01/19 12:18:07;;;;;;;13.55;3.28;;;;;;;;;;4993024;28;20399;-80
2024/01/19 12:20:47;;;;;;;12.73;2.97;;;;;;;;;;4975266;28;20125;-80
2024/01/19 12:23:42;;;;;;;9.20;3.22;;;;;;;;;;4975748;28;20030;-81
2024/01/19 12:26:08;;;;;;;8.32;3.00;;;;;;;;;;4990804;28;20116;-79
2024/01/19 12:29:30;;;;;;;12.90;2.60;;;;;;;;;;4992852;28;20034;-79
2024/01/19 12:33:29;;;;;;;9.65;3.03;;;;;;;;;;4950937;29;20079;-81
2024/01/19 12:36:27;;;;;;;8.88;2.60;;;;;;;;;;4966145;28;20459;-79
2024/01/19 12:39:13;;;;;;;8.73;2.50;;;;;;;;;;4962311;28;20105;-79
2024/01/19 12:41:40;;;;;;;10.48;3.95;;;;;;;;;;4993051;28;20034;-79
2024/01/19 12:44:12;;;;;;;14.85;3.25;;;;;;;;;;4992093;28;20096;-81
2024/01/19 12:47:11;;;;;;;14.60;3.38;;;;;;;;;;4954432;28;20077;-82
2024/01/19 12:50:09;;;;;;;9.90;2.72;;;;;;;;;;4958863;28;20038;-81
2024/01/19 12:52:35;;;;;;;9.95;2.88;;;;;;;;;;4992135;28;20030;-80
2024/01/19 12:55:03;;;;;;;8.85;2.67;;;;;;;;;;4992069;28;20487;-80
2024/01/19 12:57:30;;;;;;;11.93;3.30;;;;;;;;;;4991114;28;20140;-80
2024/01/19 13:04:15;;;;;;;15.63;3.45;;;;;;;;;;4938839;29;20047;-80
2024/01/19 13:06:53;;;;;;;17.92;4.03;;;;;;;;;;4950337;28;20038;-79
2024/01/19 13:14:04;;;;;;;17.50;4.03;;;;;;;;;;4856207;29;20052;-80
2024/01/19 13:17:22;;;;;;;11.18;3.10;;;;;;;;;;4875435;29;20059;-79
2024/01/19 13:19:49;;;;;;;10.05;2.70;;;;;;;;;;4936475;28;20358;-79
2024/01/19 13:22:17;;;;;;;8.55;2.65;;;;;;;;;;4962598;28;20364;-79
2024/01/19 13:24:52;;;;;;;11.20;3.15;;;;;;;;;;4996049;28;20481;-79
2024/01/19 13:27:47;;;;;;;;;;;;;;;;;;;;;
2024/01/19 13:30:44;;;;;;;16.50;3.72;;;;;;;;;;4995776;28;20407;-79
2024/01/19 13:33:11;;;;;;;12.60;3.60;;;;;;;;;;4995401;28;20110;-78
2024/01/19 13:35:39;;;;;;;8.88;2.42;;;;;;;;;;4962088;28;20062;-78
2024/01/19 13:42:27;;;;;;;11.40;3.08;;;;;;;;;;4995535;28;20096;-79
2024/01/19 13:45:48;;;;;;;9.07;2.88;;;;;;;;;;4949930;28;20053;-82
2024/01/19 13:51:52;;;;;;;15.18;3.53;;;;;;;;;;4974777;28;20543;-82
2024/01/19 13:54:26;;;;;;;13.25;2.65;;;;;;;;;;4979545;28;20035;-80
2024/01/19 13:57:16;;;;;;;23.92;3.75;;;;;;;;;;4962802;28;20531;-82
2024/01/19 13:59:45;;;;;;;10.95;2.72;;;;;;;;;;4977458;28;20039;-81
2024/01/19 14:02:25;;;;;;;27.70;3.30;;;;;;;;;;4977625;28;20081;-81
2024/01/19 14:05:16;;;;;;;14.82;2.92;;;;;;;;;;4978407;28;20179;-81
2024/01/19 14:07:48;;;;;;;13.23;3.53;;;;;;;;;;5000446;28;20508;-81
2024/01/19 14:10:21;;;;;;;11.88;3.75;;;;;;;;;;4982044;28;20471;-80
2024/01/19 14:17:23;;;;;;;14.50;4.57;;;;;;;;;;4942760;28;20070;-81
2024/01/19 14:19:53;;;;;;;13.20;4.80;;;;;;;;;;4939556;29;20506;-81
2024/01/19 14:37:52;;;;;;;18.45;6.20;;;;;;;;;;4859304;29;20199;-79
2024/01/19 14:44:31;;;;;;;16.67;6.97;;;;;;;;;;4867817;29;20131;-83
2024/01/19 14:47:03;;;;;;;18.20;6.00;;;;;;;;;;4848869;29;20072;-83
2024/01/19 14:49:32;;;;;;;17.67;7.32;;;;;;;;;;4875984;29;20052;-82
2024/01/19 14:52:04;;;;;;;20.73;8.10;;;;;;;;;;4931987;29;20023;-74
2024/01/19 14:54:31;;;;;;;17.08;7.03;;;;;;;;;;4939160;29;20456;-76
2024/01/19 14:56:59;;;;;;;23.00;9.23;;;;;;;;;;4947395;29;20126;-77
2024/01/19 14:59:25;;;;;;;22.85;10.85;;;;;;;;;;4951590;28;20051;-78
2024/01/19 15:01:52;;;;;;;20.02;9.32;;;;;;;;;;4934599;29;20135;-75
2024/01/19 15:04:18;;;;;;;26.42;6.88;;;;;;;;;;4949408;29;20126;-77
2024/01/19 15:06:47;;;;;;;18.70;6.32;;;;;;;;;;4948920;28;20438;-77
2024/01/19 15:09:13;;;;;;;21.50;6.20;;;;;;;;;;4990115;28;20109;-76
2024/01/19 15:11:39;;;;;;;22.73;5.10;;;;;;;;;;4987009;28;20466;-77
2024/01/19 15:14:05;;;;;;;15.07;5.15;;;;;;;;;;4992025;28;20038;-75
2024/01/19 15:16:34;;;;;;;19.58;6.70;;;;;;;;;;5005375;28;20129;-78
2024/01/19 15:19:00;;;;;;;15.50;6.00;;;;;;;;;;4985582;28;20045;-80
2024/01/19 15:21:26;;;;;;;17.48;6.88;;;;;;;;;;4991062;28;20113;-80
2024/01/19 15:23:51;;;;;;;20.67;6.57;;;;;;;;;;4988879;28;20093;-80
2024/01/19 15:26:18;;;;;;;19.35;5.55;;;;;;;;;;4992051;28;20045;-80
2024/01/19 15:28:44;;;;;;;18.00;5.70;;;;;;;;;;4995449;28;20093;-79
2024/01/19 15:31:10;;;;;;;24.13;6.80;;;;;;;;;;4989841;28;20030;-79
2024/01/19 15:33:35;;;;;;;19.48;7.32;;;;;;;;;;4989007;28;20038;-79
2024/01/19 15:36:09;;;;;;;15.27;4.97;;;;;;;;;;4987759;28;20030;-78
2024/01/19 15:38:35;;;;;;;13.77;5.88;;;;;;;;;;4987807;28;20058;-78
2024/01/19 15:41:01;;;;;;;20.85;7.10;;;;;;;;;;4989029;28;20050;-78
2024/01/19 15:43:26;;;;;;;22.42;8.05;;;;;;;;;;4996551;28;20034;-79
2024/01/19 15:45:53;;;;;;;22.65;7.88;;;;;;;;;;4988622;28;20100;-78
2024/01/19 15:48:20;;;;;;;23.65;9.55;;;;;;;;;;4971640;28;20488;-78
2024/01/19 15:50:46;;;;;;;21.42;8.25;;;;;;;;;;4971589;28;20066;-79
2024/01/19 15:53:12;;;;;;;22.67;9.15;;;;;;;;;;4976212;28;20038;-78
2024/01/19 15:55:37;;;;;;;17.15;6.70;;;;;;;;;;4988478;28;20380;-77
2024/01/19 15:58:03;;;;;;;14.35;6.72;;;;;;;;;;4988738;28;20130;-79
2024/01/19 16:00:30;;;;;;;15.50;7.00;;;;;;;;;;4989183;28;20133;-79
2024/01/19 16:02:56;;;;;;;18.83;7.40;;;;;;;;;;5003533;28;20289;-78
2024/01/19 16:05:22;;;;;;;17.05;7.90;;;;;;;;;;4988908;28;20495;-78
2024/01/19 16:07:48;;;;;;;21.92;8.82;;;;;;;;;;4987050;28;20034;-79
2024/01/19 16:10:16;;;;;;;23.02;9.35;;;;;;;;;;4986933;28;20078;-78
2024/01/19 16:12:42;;;;;;;25.88;8.75;;;;;;;;;;4997227;28;20157;-77
2024/01/19 16:15:09;;;;;;;18.42;7.22;;;;;;;;;;4987875;28;20043;-76
2024/01/19 16:17:37;;;;;;;23.27;8.93;;;;;;;;;;4988329;28;20023;-78
2024/01/19 16:20:08;;;;;;;27.67;9.90;;;;;;;;;;4987860;28;20061;-77
2024/01/19 16:22:35;;;;;;;20.23;7.53;;;;;;;;;;4988642;28;20373;-77
2024/01/19 16:25:03;;;;;;;23.95;8.05;;;;;;;;;;4957605;28;20092;-77
2024/01/19 16:27:32;;;;;;;25.95;8.95;;;;;;;;;;4988496;28;20113;-77
2024/01/19 16:30:00;;;;;;;21.45;7.43;;;;;;;;;;4971443;28;20027;-78
2024/01/19 16:32:26;;;;;;;22.85;9.30;;;;;;;;;;5000747;28;20034;-77